createdAt,value
2017-08-27T00:00:31.029Z,17.99
2017-08-27T00:02:57.233Z,17.93
2017-08-27T00:05:23.436Z,17.89
2017-08-27T00:07:49.887Z,17.83
2017-08-27T00:10:16.099Z,17.79
2017-08-27T00:12:42.335Z,17.71
2017-08-27T00:15:08.530Z,17.66
2017-08-27T00:17:35.021Z,17.59
2017-08-27T00:20:01.348Z,17.59
2017-08-27T00:22:27.572Z,17.50
2017-08-27T00:24:53.801Z,17.46
2017-08-27T00:27:20.000Z,17.42
2017-08-27T00:29:46.208Z,17.40
2017-08-27T00:32:12.764Z,17.34
2017-08-27T00:34:38.988Z,17.36
2017-08-27T00:37:05.201Z,17.32
2017-08-27T00:39:31.438Z,17.31
2017-08-27T00:41:57.643Z,17.26
2017-08-27T00:44:23.868Z,17.24
2017-08-27T00:46:50.084Z,17.20
2017-08-27T00:49:16.323Z,17.19
2017-08-27T00:51:42.896Z,17.17
2017-08-27T00:54:09.112Z,17.09
2017-08-27T00:56:35.377Z,17.01
2017-08-27T00:59:01.987Z,16.98
2017-08-27T01:01:28.195Z,17.03
2017-08-27T01:03:54.423Z,16.95
2017-08-27T01:06:20.792Z,16.89
2017-08-27T01:08:47.019Z,16.89
2017-08-27T01:11:13.284Z,16.87
2017-08-27T01:13:39.509Z,16.83
2017-08-27T01:16:05.744Z,16.84
2017-08-27T01:18:31.952Z,16.75
2017-08-27T01:20:58.336Z,16.69
2017-08-27T01:23:24.559Z,16.66
2017-08-27T01:25:50.782Z,16.64
2017-08-27T01:28:16.991Z,16.60
2017-08-27T01:30:43.207Z,16.56
2017-08-27T01:33:09.747Z,16.55
2017-08-27T01:35:35.975Z,16.54
2017-08-27T01:38:02.293Z,16.47
2017-08-27T01:40:28.913Z,16.46
2017-08-27T01:42:55.130Z,16.44
2017-08-27T01:45:21.354Z,16.39
2017-08-27T01:47:47.813Z,16.37
2017-08-27T01:50:14.032Z,16.37
2017-08-27T01:52:40.261Z,16.36
2017-08-27T01:55:06.525Z,16.36
2017-08-27T01:57:32.746Z,16.32
2017-08-27T01:59:58.962Z,16.32
2017-08-27T02:02:25.534Z,16.29
2017-08-27T02:04:51.750Z,16.28
2017-08-27T02:07:17.974Z,16.23
2017-08-27T02:09:44.201Z,16.25
2017-08-27T02:12:10.432Z,16.26
2017-08-27T02:14:36.700Z,16.28
2017-08-27T02:17:02.928Z,16.27
2017-08-27T02:19:29.171Z,16.21
2017-08-27T02:21:55.424Z,16.14
2017-08-27T02:24:21.649Z,16.15
2017-08-27T02:26:47.870Z,16.14
2017-08-27T02:29:14.141Z,16.17
2017-08-27T02:31:40.357Z,16.12
2017-08-27T02:34:06.578Z,16.13
2017-08-27T02:36:33.070Z,16.12
2017-08-27T02:38:59.293Z,16.09
2017-08-27T02:41:25.507Z,16.09
2017-08-27T02:43:51.858Z,16.02
2017-08-27T02:46:18.093Z,16.06
2017-08-27T02:48:44.330Z,16.04
2017-08-27T02:51:10.577Z,16.06
2017-08-27T02:53:36.798Z,16.03
2017-08-27T02:56:03.013Z,16.01
2017-08-27T02:58:29.247Z,15.99
2017-08-27T03:00:55.505Z,16.04
2017-08-27T03:03:21.731Z,16.03
2017-08-27T03:05:55.038Z,16.00
2017-08-27T03:08:21.254Z,16.00
2017-08-27T03:10:47.483Z,15.97
2017-08-27T03:13:13.782Z,15.97
2017-08-27T03:15:40.002Z,15.93
2017-08-27T03:18:06.214Z,15.90
2017-08-27T03:20:32.500Z,15.92
2017-08-27T03:22:58.717Z,15.88
2017-08-27T03:25:24.945Z,15.89
2017-08-27T03:27:51.197Z,15.89
2017-08-27T03:30:17.436Z,15.85
2017-08-27T03:32:43.662Z,15.87
2017-08-27T03:35:10.317Z,15.84
2017-08-27T03:37:36.545Z,15.87
2017-08-27T03:40:02.799Z,15.85
2017-08-27T03:42:29.413Z,15.83
2017-08-27T03:44:55.644Z,15.82
2017-08-27T03:47:21.874Z,15.80
2017-08-27T03:49:48.138Z,15.81
2017-08-27T03:52:14.359Z,15.74
2017-08-27T03:54:40.576Z,15.75
2017-08-27T03:57:06.809Z,15.74
2017-08-27T03:59:33.237Z,15.78
2017-08-27T04:01:59.450Z,15.77
2017-08-27T04:04:25.674Z,15.80
2017-08-27T04:06:51.909Z,15.77
2017-08-27T04:09:18.153Z,15.80
2017-08-27T04:11:44.378Z,15.85
2017-08-27T04:14:10.638Z,15.81
2017-08-27T04:16:36.858Z,15.82
2017-08-27T04:19:03.090Z,15.81
2017-08-27T04:21:29.382Z,15.87
2017-08-27T04:23:55.596Z,15.82
2017-08-27T04:26:21.812Z,15.83
2017-08-27T04:28:48.064Z,15.81
2017-08-27T04:31:14.282Z,15.88
2017-08-27T04:33:40.499Z,15.92
2017-08-27T04:36:06.744Z,15.95
2017-08-27T04:38:32.971Z,15.97
2017-08-27T04:40:59.205Z,15.92
2017-08-27T04:43:25.470Z,15.96
2017-08-27T04:45:51.703Z,15.90
2017-08-27T04:48:17.938Z,15.93
2017-08-27T04:50:44.411Z,15.96
2017-08-27T04:53:10.689Z,15.91
2017-08-27T04:55:36.921Z,15.91
2017-08-27T04:58:03.189Z,15.90
2017-08-27T05:00:29.410Z,15.93
2017-08-27T05:02:55.683Z,15.90
2017-08-27T05:05:21.935Z,15.89
2017-08-27T05:07:48.224Z,15.91
2017-08-27T05:10:14.454Z,15.93
2017-08-27T05:12:40.669Z,15.88
2017-08-27T05:15:06.899Z,15.92
2017-08-27T05:17:33.125Z,15.91
2017-08-27T05:19:59.407Z,15.91
2017-08-27T05:22:25.630Z,15.90
2017-08-27T05:24:51.853Z,15.94
2017-08-27T05:27:18.104Z,15.94
2017-08-27T05:29:44.337Z,16.01
2017-08-27T05:32:10.589Z,16.06
2017-08-27T05:34:36.851Z,16.09
2017-08-27T05:37:03.078Z,16.12
2017-08-27T05:39:29.309Z,16.17
2017-08-27T05:41:55.679Z,16.17
2017-08-27T05:44:21.919Z,16.23
2017-08-27T05:46:48.187Z,16.28
2017-08-27T05:49:14.726Z,16.29
2017-08-27T05:51:41.255Z,16.34
2017-08-27T05:54:07.537Z,16.34
2017-08-27T05:56:33.834Z,16.40
2017-08-27T05:59:00.062Z,16.41
2017-08-27T06:01:26.468Z,16.44
2017-08-27T06:03:52.714Z,16.47
2017-08-27T06:06:18.951Z,16.50
2017-08-27T06:08:45.374Z,16.53
2017-08-27T06:11:11.633Z,16.58
2017-08-27T06:13:38.010Z,16.61
2017-08-27T06:16:04.739Z,16.68
2017-08-27T06:18:31.378Z,16.70
2017-08-27T06:20:58.157Z,16.73
2017-08-27T06:23:24.558Z,16.79
2017-08-27T06:25:50.785Z,16.87
2017-08-27T06:28:17.103Z,16.94
2017-08-27T06:30:43.364Z,16.98
2017-08-27T06:33:09.722Z,17.07
2017-08-27T06:35:36.223Z,17.18
2017-08-27T06:38:02.465Z,17.21
2017-08-27T06:40:28.679Z,17.30
2017-08-27T06:42:55.961Z,17.32
2017-08-27T06:45:22.303Z,17.40
2017-08-27T06:47:48.596Z,17.50
2017-08-27T06:50:14.809Z,17.54
2017-08-27T06:52:41.062Z,17.64
2017-08-27T06:55:08.028Z,17.63
2017-08-27T06:57:34.267Z,17.69
2017-08-27T07:00:00.534Z,17.71
2017-08-27T07:02:27.537Z,17.79
2017-08-27T07:04:53.859Z,17.86
2017-08-27T07:07:20.117Z,17.85
2017-08-27T07:09:46.352Z,17.88
2017-08-27T07:12:13.584Z,17.87
2017-08-27T07:14:40.748Z,17.82
2017-08-27T07:17:07.950Z,17.97
2017-08-27T07:19:35.552Z,18.02
2017-08-27T07:22:01.934Z,18.11
2017-08-27T07:24:28.165Z,18.06
2017-08-27T07:26:54.424Z,18.14
2017-08-27T07:29:20.641Z,18.25
2017-08-27T07:31:46.901Z,18.22
2017-08-27T07:34:13.447Z,18.35
2017-08-27T07:36:39.662Z,18.54
2017-08-27T07:39:06.215Z,18.49
2017-08-27T07:41:32.964Z,18.52
2017-08-27T07:43:59.193Z,18.68
2017-08-27T07:46:25.432Z,18.65
2017-08-27T07:48:51.678Z,18.68
2017-08-27T07:51:18.184Z,18.69
2017-08-27T07:53:45.333Z,18.62
2017-08-27T07:56:11.870Z,18.69
2017-08-27T07:58:38.145Z,18.73
2017-08-27T08:01:11.594Z,18.74
2017-08-27T08:03:37.822Z,18.81
2017-08-27T08:06:04.066Z,18.69
2017-08-27T08:08:30.302Z,18.80
2017-08-27T08:10:56.603Z,19.07
2017-08-27T08:13:22.863Z,19.11
2017-08-27T08:15:49.379Z,19.06
2017-08-27T08:18:15.614Z,19.03
2017-08-27T08:20:41.824Z,19.07
2017-08-27T08:23:08.257Z,19.24
2017-08-27T08:25:34.497Z,19.28
2017-08-27T08:28:00.716Z,19.36
2017-08-27T08:30:27.258Z,19.66
2017-08-27T08:32:53.477Z,19.66
2017-08-27T08:35:19.711Z,19.56
2017-08-27T08:37:45.986Z,19.65
2017-08-27T08:40:12.218Z,19.44
2017-08-27T08:42:38.467Z,19.35
2017-08-27T08:45:04.717Z,19.49
2017-08-27T08:47:30.949Z,19.85
2017-08-27T08:49:57.173Z,19.88
2017-08-27T08:52:23.414Z,20.14
2017-08-27T08:54:49.634Z,20.24
2017-08-27T08:57:15.868Z,20.39
2017-08-27T08:59:42.383Z,20.52
2017-08-27T09:02:08.610Z,20.31
2017-08-27T09:04:34.838Z,20.31
2017-08-27T09:07:01.099Z,20.11
2017-08-27T09:09:27.330Z,19.89
2017-08-27T09:11:53.542Z,19.75
2017-08-27T09:14:19.872Z,19.67
2017-08-27T09:16:46.093Z,19.73
2017-08-27T09:19:12.306Z,19.84
2017-08-27T09:21:39.360Z,19.99
2017-08-27T09:24:05.586Z,20.38
2017-08-27T09:26:31.815Z,20.66
2017-08-27T09:28:58.035Z,20.64
2017-08-27T09:31:24.270Z,20.34
2017-08-27T09:33:50.717Z,20.10
2017-08-27T09:36:16.931Z,20.17
2017-08-27T09:38:43.144Z,20.42
2017-08-27T09:41:09.414Z,20.66
2017-08-27T09:43:35.630Z,20.71
2017-08-27T09:46:01.853Z,20.87
2017-08-27T09:48:28.141Z,20.78
2017-08-27T09:50:54.361Z,20.74
2017-08-27T09:53:20.573Z,20.43
2017-08-27T09:55:46.802Z,20.30
2017-08-27T09:58:13.029Z,20.18
2017-08-27T10:00:39.241Z,20.50
2017-08-27T10:03:05.759Z,20.70
2017-08-27T10:05:31.981Z,20.60
2017-08-27T10:07:58.185Z,20.72
2017-08-27T10:10:24.475Z,20.80
2017-08-27T10:12:50.678Z,20.69
2017-08-27T10:15:17.045Z,21.06
2017-08-27T10:17:43.250Z,21.25
2017-08-27T10:20:09.478Z,21.71
2017-08-27T10:22:35.731Z,21.73
2017-08-27T10:25:01.970Z,21.57
2017-08-27T10:27:28.198Z,21.17
2017-08-27T10:29:54.463Z,20.53
2017-08-27T10:32:20.673Z,20.45
2017-08-27T10:34:46.915Z,20.46
2017-08-27T10:37:13.166Z,20.88
2017-08-27T10:39:39.401Z,21.18
2017-08-27T10:42:05.635Z,21.46
2017-08-27T10:44:31.858Z,21.48
2017-08-27T10:46:58.089Z,21.44
2017-08-27T10:49:24.347Z,21.56
2017-08-27T10:51:50.584Z,21.53
2017-08-27T10:54:16.820Z,21.53
2017-08-27T10:56:43.081Z,21.16
2017-08-27T10:59:09.304Z,20.75
2017-08-27T11:01:35.534Z,20.70
2017-08-27T11:04:01.826Z,20.57
2017-08-27T11:06:28.071Z,20.98
2017-08-27T11:08:54.293Z,21.19
2017-08-27T11:11:20.546Z,21.26
2017-08-27T11:13:46.781Z,21.76
2017-08-27T11:16:13.018Z,21.86
2017-08-27T11:18:39.282Z,21.85
2017-08-27T11:21:05.506Z,21.73
2017-08-27T11:23:31.731Z,21.54
2017-08-27T11:25:58.117Z,21.38
2017-08-27T11:28:24.333Z,21.15
2017-08-27T11:30:50.550Z,20.98
2017-08-27T11:33:16.817Z,21.07
2017-08-27T11:35:43.035Z,21.57
2017-08-27T11:38:09.246Z,21.81
2017-08-27T11:40:35.683Z,21.67
2017-08-27T11:43:01.941Z,21.61
2017-08-27T11:45:28.169Z,21.67
2017-08-27T11:47:54.419Z,21.74
2017-08-27T11:50:20.663Z,21.76
2017-08-27T11:52:46.884Z,21.94
2017-08-27T11:55:13.157Z,21.95
2017-08-27T11:57:39.522Z,21.83
2017-08-27T12:00:05.794Z,21.68
2017-08-27T12:02:32.042Z,21.55
2017-08-27T12:04:58.261Z,21.63
2017-08-27T12:07:24.502Z,21.87
2017-08-27T12:09:50.755Z,21.50
2017-08-27T12:12:16.986Z,21.58
2017-08-27T12:14:43.207Z,22.42
2017-08-27T12:17:09.731Z,22.88
2017-08-27T12:19:35.972Z,23.24
2017-08-27T12:22:02.234Z,23.39
2017-08-27T12:24:28.471Z,23.48
2017-08-27T12:26:54.733Z,23.40
2017-08-27T12:29:20.966Z,22.76
2017-08-27T12:31:47.216Z,22.57
2017-08-27T12:34:13.453Z,22.30
2017-08-27T12:36:39.715Z,22.04
2017-08-27T12:39:05.953Z,21.94
2017-08-27T12:41:32.185Z,22.01
2017-08-27T12:43:58.438Z,22.87
2017-08-27T12:46:24.687Z,22.69
2017-08-27T12:48:50.929Z,22.20
2017-08-27T12:51:17.149Z,22.45
2017-08-27T12:53:43.383Z,22.95
2017-08-27T12:56:09.647Z,23.13
2017-08-27T12:58:35.897Z,22.91
2017-08-27T13:01:02.168Z,24.42
2017-08-27T13:03:28.782Z,25.10
2017-08-27T13:05:55.031Z,25.96
2017-08-27T13:08:21.293Z,26.89
2017-08-27T13:10:47.546Z,26.79
2017-08-27T13:13:13.785Z,27.06
2017-08-27T13:15:40.073Z,26.70
2017-08-27T13:18:06.335Z,26.39
2017-08-27T13:20:34.304Z,26.69
2017-08-27T13:23:01.383Z,27.01
2017-08-27T13:25:30.027Z,27.28
2017-08-27T13:27:59.024Z,26.98
2017-08-27T13:30:27.091Z,26.46
2017-08-27T13:32:54.409Z,26.93
2017-08-27T13:35:21.769Z,28.18
2017-08-27T13:37:49.065Z,28.23
2017-08-27T13:40:16.163Z,27.93
2017-08-27T13:42:43.516Z,27.50
2017-08-27T13:45:10.696Z,28.28
2017-08-27T13:47:37.786Z,28.11
2017-08-27T13:50:04.868Z,27.61
2017-08-27T13:52:32.226Z,26.08
2017-08-27T13:54:59.593Z,25.40
2017-08-27T13:57:26.660Z,24.72
2017-08-27T13:59:53.813Z,24.85
2017-08-27T14:02:21.062Z,26.60
2017-08-27T14:04:48.063Z,27.24
2017-08-27T14:07:15.175Z,27.15
2017-08-27T14:09:42.235Z,27.50
2017-08-27T14:12:08.853Z,27.20
2017-08-27T14:14:35.934Z,26.38
2017-08-27T14:17:03.121Z,26.48
2017-08-27T14:19:29.389Z,26.42
2017-08-27T14:21:56.608Z,24.85
2017-08-27T14:24:22.960Z,25.01
2017-08-27T14:26:50.038Z,24.91
2017-08-27T14:29:18.145Z,24.61
2017-08-27T14:31:44.455Z,24.39
2017-08-27T14:34:10.690Z,25.28
2017-08-27T14:36:36.942Z,25.55
2017-08-27T14:39:03.966Z,26.14
2017-08-27T14:41:31.313Z,26.22
2017-08-27T14:43:58.349Z,25.87
2017-08-27T14:46:24.673Z,24.57
2017-08-27T14:48:50.968Z,24.45
2017-08-27T14:51:18.057Z,23.78
2017-08-27T14:53:45.253Z,23.45
2017-08-27T14:56:11.558Z,23.16
2017-08-27T14:58:37.791Z,22.90
2017-08-27T15:01:04.069Z,22.64
2017-08-27T15:03:30.300Z,22.87
2017-08-27T15:05:56.564Z,22.81
2017-08-27T15:08:23.168Z,22.73
2017-08-27T15:10:51.469Z,22.69
2017-08-27T15:13:19.377Z,22.81
2017-08-27T15:15:45.661Z,22.92
2017-08-27T15:18:12.755Z,22.78
2017-08-27T15:20:41.627Z,22.40
2017-08-27T15:23:09.646Z,22.52
2017-08-27T15:25:35.905Z,22.27
2017-08-27T15:28:03.454Z,22.31
2017-08-27T15:30:29.745Z,22.14
2017-08-27T15:32:56.012Z,22.15
2017-08-27T15:35:22.285Z,22.13
2017-08-27T15:37:48.555Z,21.96
2017-08-27T15:40:15.740Z,21.86
2017-08-27T15:42:42.119Z,21.76
2017-08-27T15:45:08.354Z,21.65
2017-08-27T15:47:34.572Z,21.71
2017-08-27T15:50:00.953Z,21.60
2017-08-27T15:52:27.988Z,21.49
2017-08-27T15:54:54.223Z,21.52
2017-08-27T15:57:20.502Z,21.54
2017-08-27T15:59:46.953Z,21.50
2017-08-27T16:02:13.191Z,21.50
2017-08-27T16:04:40.021Z,21.51
2017-08-27T16:07:06.255Z,21.44
2017-08-27T16:09:33.614Z,21.41
2017-08-27T16:11:59.876Z,21.47
2017-08-27T16:14:26.126Z,21.48
2017-08-27T16:16:52.435Z,21.32
2017-08-27T16:19:18.693Z,21.21
2017-08-27T16:21:45.848Z,21.16
2017-08-27T16:24:12.147Z,20.94
2017-08-27T16:26:39.155Z,20.89
2017-08-27T16:29:06.327Z,20.78
2017-08-27T16:31:32.643Z,20.68
2017-08-27T16:33:59.129Z,20.50
2017-08-27T16:36:25.397Z,20.38
2017-08-27T16:38:51.655Z,20.23
2017-08-27T16:41:17.934Z,20.20
2017-08-27T16:43:44.790Z,20.18
2017-08-27T16:46:12.042Z,20.24
2017-08-27T16:48:40.182Z,20.15
2017-08-27T16:51:06.465Z,20.17
2017-08-27T16:53:32.781Z,20.10
2017-08-27T16:55:59.071Z,20.13
2017-08-27T16:58:25.938Z,20.05
2017-08-27T17:00:52.772Z,20.08
2017-08-27T17:03:19.292Z,19.98
2017-08-27T17:05:46.021Z,19.96
2017-08-27T17:08:12.951Z,19.83
2017-08-27T17:10:39.405Z,19.82
2017-08-27T17:13:05.666Z,19.75
2017-08-27T17:15:32.781Z,19.73
2017-08-27T17:18:00.108Z,19.73
2017-08-27T17:20:27.066Z,19.68
2017-08-27T17:22:53.905Z,19.56
2017-08-27T17:25:20.859Z,19.60
2017-08-27T17:27:47.122Z,19.48
2017-08-27T17:30:13.736Z,19.51
2017-08-27T17:32:40.276Z,19.41
2017-08-27T17:35:07.378Z,19.26
2017-08-27T17:37:35.738Z,19.23
2017-08-27T17:40:02.704Z,19.23
2017-08-27T17:42:29.047Z,19.19
2017-08-27T17:44:56.846Z,19.11
2017-08-27T17:47:25.214Z,19.11
2017-08-27T17:49:52.231Z,18.98
2017-08-27T17:52:18.499Z,18.89
2017-08-27T17:54:44.752Z,18.85
2017-08-27T17:57:11.068Z,18.77
2017-08-27T17:59:37.374Z,18.66
2017-08-27T18:02:03.639Z,18.65
2017-08-27T18:04:30.197Z,18.60
2017-08-27T18:06:56.441Z,18.54
2017-08-27T18:09:22.703Z,18.58
2017-08-27T18:11:49.896Z,18.50
2017-08-27T18:14:16.836Z,18.47
2017-08-27T18:16:43.115Z,18.42
2017-08-27T18:19:11.042Z,18.33
2017-08-27T18:21:39.581Z,18.31
2017-08-27T18:24:05.811Z,18.25
2017-08-27T18:26:36.017Z,18.20
2017-08-27T18:29:02.266Z,18.15
2017-08-27T18:31:29.285Z,18.07
2017-08-27T18:33:57.545Z,18.05
2017-08-27T18:36:25.618Z,18.01
2017-08-27T18:38:52.785Z,17.94
2017-08-27T18:41:19.372Z,17.84
2017-08-27T18:43:46.249Z,17.72
2017-08-27T18:46:13.434Z,17.69
2017-08-27T18:48:42.277Z,17.64
2017-08-27T18:51:09.442Z,17.64
2017-08-27T18:53:36.626Z,17.59
2017-08-27T18:56:04.796Z,17.64
2017-08-27T18:58:31.024Z,17.57
2017-08-27T19:00:59.018Z,17.46
2017-08-27T19:03:25.331Z,17.45
2017-08-27T19:05:52.576Z,17.36
2017-08-27T19:08:18.854Z,17.27
2017-08-27T19:10:45.936Z,17.32
2017-08-27T19:13:12.180Z,17.31
2017-08-27T19:15:40.183Z,17.29
2017-08-27T19:18:06.730Z,17.16
2017-08-27T19:20:33.007Z,17.22
2017-08-27T19:23:01.041Z,17.16
2017-08-27T19:25:27.668Z,16.94
2017-08-27T19:27:54.760Z,16.98
2017-08-27T19:30:21.570Z,16.98
2017-08-27T19:32:47.865Z,16.97
2017-08-27T19:35:14.094Z,16.82
2017-08-27T19:37:40.367Z,16.66
2017-08-27T19:40:06.649Z,16.67
2017-08-27T19:42:32.909Z,16.61
2017-08-27T19:44:59.151Z,16.67
2017-08-27T19:47:25.647Z,16.65
2017-08-27T19:49:52.256Z,16.76
2017-08-27T19:52:18.477Z,16.73
2017-08-27T19:54:44.749Z,16.65
2017-08-27T19:57:11.257Z,16.63
2017-08-27T19:59:37.500Z,16.59
2017-08-27T20:02:03.770Z,16.54
2017-08-27T20:04:30.043Z,16.47
2017-08-27T20:06:56.265Z,16.47
2017-08-27T20:09:22.722Z,16.42
2017-08-27T20:11:48.950Z,16.18
2017-08-27T20:14:15.508Z,16.09
2017-08-27T20:16:41.814Z,15.96
2017-08-27T20:19:08.221Z,15.93
2017-08-27T20:21:35.222Z,15.91
2017-08-27T20:24:01.486Z,15.94
2017-08-27T20:26:27.743Z,16.08
2017-08-27T20:28:54.037Z,16.05
2017-08-27T20:31:20.338Z,16.06
2017-08-27T20:33:46.589Z,16.05
2017-08-27T20:36:12.838Z,16.01
2017-08-27T20:38:39.162Z,16.01
2017-08-27T20:41:05.388Z,15.98
2017-08-27T20:43:31.621Z,15.86
2017-08-27T20:45:58.195Z,15.87
2017-08-27T20:48:24.417Z,15.81
2017-08-27T20:50:50.871Z,15.72
2017-08-27T20:53:17.155Z,15.72
2017-08-27T20:55:43.400Z,15.68
2017-08-27T20:58:09.643Z,15.72
2017-08-27T21:00:35.903Z,15.74
2017-08-27T21:03:02.159Z,15.69
2017-08-27T21:05:28.382Z,15.62
2017-08-27T21:07:54.607Z,15.64
2017-08-27T21:10:20.858Z,15.55
2017-08-27T21:12:47.089Z,15.42
2017-08-27T21:15:13.314Z,15.43
2017-08-27T21:17:39.548Z,15.36
2017-08-27T21:20:05.814Z,15.43
2017-08-27T21:22:32.041Z,15.42
2017-08-27T21:24:58.294Z,15.43
2017-08-27T21:27:24.529Z,15.46
2017-08-27T21:29:50.757Z,15.42
2017-08-27T21:32:16.995Z,15.41
2017-08-27T21:34:43.228Z,15.50
2017-08-27T21:37:09.500Z,15.51
2017-08-27T21:39:35.739Z,15.62
2017-08-27T21:42:02.048Z,15.54
2017-08-27T21:44:28.344Z,15.32
2017-08-27T21:46:54.567Z,15.22
2017-08-27T21:49:20.794Z,15.15
2017-08-27T21:51:47.381Z,15.15
2017-08-27T21:54:13.613Z,15.12
2017-08-27T21:56:39.837Z,15.06
2017-08-27T21:59:06.306Z,14.98
2017-08-27T22:01:32.538Z,15.04
2017-08-27T22:03:58.768Z,15.01
2017-08-27T22:06:25.185Z,14.95
2017-08-27T22:08:51.401Z,14.89
2017-08-27T22:11:24.665Z,14.93
2017-08-27T22:13:50.907Z,14.95
2017-08-27T22:16:17.137Z,15.08
2017-08-27T22:18:43.415Z,15.12
2017-08-27T22:21:09.653Z,15.17
2017-08-27T22:23:35.859Z,15.15
2017-08-27T22:26:02.109Z,15.18
2017-08-27T22:28:28.392Z,15.27
2017-08-27T22:30:54.637Z,15.24
2017-08-27T22:33:20.874Z,15.18
2017-08-27T22:35:47.365Z,15.08
2017-08-27T22:38:13.590Z,15.05
2017-08-27T22:40:39.901Z,15.06
2017-08-27T22:43:06.356Z,15.00
2017-08-27T22:45:32.622Z,14.97
2017-08-27T22:47:59.601Z,15.01
2017-08-27T22:50:25.966Z,15.05
2017-08-27T22:52:52.199Z,15.09
2017-08-27T22:55:18.433Z,15.02
2017-08-27T22:57:44.726Z,15.01
2017-08-27T23:00:10.978Z,14.93
2017-08-27T23:02:37.241Z,14.87
2017-08-27T23:05:03.497Z,14.81
2017-08-27T23:07:29.719Z,14.78
2017-08-27T23:09:55.953Z,14.74
2017-08-27T23:12:22.201Z,14.71
2017-08-27T23:14:48.438Z,14.65
2017-08-27T23:17:14.672Z,14.63
2017-08-27T23:19:40.953Z,14.63
2017-08-27T23:22:07.182Z,14.62
2017-08-27T23:24:33.417Z,14.72
2017-08-27T23:26:59.689Z,14.77
2017-08-27T23:29:25.924Z,14.80
2017-08-27T23:31:52.140Z,14.83
2017-08-27T23:34:18.430Z,14.86
2017-08-27T23:36:44.654Z,14.72
2017-08-27T23:39:10.874Z,14.61
2017-08-27T23:41:37.111Z,14.69
2017-08-27T23:44:03.373Z,14.76
2017-08-27T23:46:29.731Z,14.72
2017-08-27T23:48:55.962Z,14.64
2017-08-27T23:51:22.188Z,14.83
2017-08-27T23:53:48.433Z,14.83
2017-08-27T23:56:14.649Z,14.89
2017-08-27T23:58:40.870Z,14.81
